createdAt,value
2023-04-01T00:00:33.146Z,98673.95
2023-04-01T00:03:02.493Z,98669.88
2023-04-01T00:05:31.261Z,98671.13
2023-04-01T00:07:59.720Z,98667.92
2023-04-01T00:10:40.079Z,98670.84
2023-04-01T00:13:08.559Z,98667.72
2023-04-01T00:15:36.945Z,98665.93
2023-04-01T00:18:05.956Z,98672.95
2023-04-01T00:20:34.428Z,98669.65
2023-04-01T00:23:03.099Z,98671.42
2023-04-01T00:25:31.698Z,98670.73
2023-04-01T00:28:00.074Z,98672.81
2023-04-01T00:30:28.137Z,98671.27
2023-04-01T00:33:01.662Z,98668.64
2023-04-01T00:35:29.912Z,98671.32
2023-04-01T00:38:06.529Z,98671.48
2023-04-01T00:40:39.831Z,98667.45
2023-04-01T00:43:21.574Z,98669.45
2023-04-01T00:45:51.164Z,98660.17
2023-04-01T00:48:23.552Z,98654.05
2023-04-01T00:51:08.831Z,98660.02
2023-04-01T00:53:39.781Z,98655.77
2023-04-01T00:56:19.107Z,98658.44
2023-04-01T00:58:51.506Z,98655.69
2023-04-01T01:01:21.379Z,98656.17
2023-04-01T01:03:50.292Z,98657.55
2023-04-01T01:06:41.088Z,98651.25
2023-04-01T01:09:41.110Z,98660.39
2023-04-01T01:12:19.116Z,98658.38
2023-04-01T01:14:51.004Z,98656.02
2023-04-01T01:17:28.401Z,98659.73
2023-04-01T01:19:57.364Z,98662.04
2023-04-01T01:22:40.692Z,98663.30
2023-04-01T01:25:38.460Z,98668.60
2023-04-01T01:28:09.912Z,98669.45
2023-04-01T01:30:58.566Z,98670.60
2023-04-01T01:33:32.681Z,98671.17
2023-04-01T01:36:03.961Z,98677.54
2023-04-01T01:38:33.642Z,98671.93
2023-04-01T01:41:08.647Z,98673.08
2023-04-01T01:43:42.170Z,98676.70
2023-04-01T01:46:14.224Z,98674.09
2023-04-01T01:48:43.433Z,98673.02
2023-04-01T01:51:18.421Z,98670.27
2023-04-01T01:53:46.846Z,98673.36
2023-04-01T01:56:23.623Z,98674.77
2023-04-01T01:59:04.700Z,98673.98
2023-04-01T02:01:39.155Z,98675.20
2023-04-01T02:04:11.756Z,98679.88
2023-04-01T02:07:09.571Z,98678.89
2023-04-01T02:09:37.948Z,98680.56
2023-04-01T02:12:08.212Z,98679.86
2023-04-01T02:14:53.547Z,98680.80
2023-04-01T02:17:23.986Z,98679.41
2023-04-01T02:19:55.220Z,98677.48
2023-04-01T02:22:49.614Z,98672.23
2023-04-01T02:25:29.254Z,98669.29
2023-04-01T02:28:02.137Z,98669.06
2023-04-01T02:30:30.649Z,98668.63
2023-04-01T02:32:59.639Z,98671.20
2023-04-01T02:35:28.296Z,98675.51
2023-04-01T02:38:05.075Z,98678.27
2023-04-01T02:40:49.536Z,98674.25
2023-04-01T02:43:17.808Z,98672.26
2023-04-01T02:45:46.187Z,98673.86
2023-04-01T02:48:16.001Z,98677.22
2023-04-01T02:50:44.291Z,98672.13
2023-04-01T02:53:19.581Z,98675.09
2023-04-01T02:55:47.695Z,98677.06
2023-04-01T02:58:24.676Z,98681.61
2023-04-01T03:00:52.886Z,98675.55
2023-04-01T03:03:22.223Z,98675.35
2023-04-01T03:05:50.736Z,98669.66
2023-04-01T03:08:21.265Z,98665.61
2023-04-01T03:10:49.349Z,98666.79
2023-04-01T03:13:19.560Z,98671.91
2023-04-01T03:15:47.737Z,98669.43
2023-04-01T03:18:16.831Z,98670.25
2023-04-01T03:20:48.290Z,98667.23
2023-04-01T03:23:18.509Z,98671.72
2023-04-01T03:25:52.003Z,98669.90
2023-04-01T03:28:20.080Z,98671.21
2023-04-01T03:30:48.372Z,98665.67
2023-04-01T03:33:18.478Z,98675.47
2023-04-01T03:35:46.847Z,98680.81
2023-04-01T03:38:15.805Z,98680.20
2023-04-01T03:40:45.140Z,98680.71
2023-04-01T03:43:13.836Z,98683.70
2023-04-01T03:45:46.858Z,98685.54
2023-04-01T03:48:16.847Z,98689.77
2023-04-01T03:50:45.518Z,98691.77
2023-04-01T03:53:19.122Z,98693.29
2023-04-01T03:55:48.124Z,98690.52
2023-04-01T03:58:23.784Z,98689.63
2023-04-01T04:00:52.452Z,98693.23
2023-04-01T04:03:29.725Z,98697.45
2023-04-01T04:05:58.433Z,98699.08
2023-04-01T04:08:33.978Z,98703.39
2023-04-01T04:11:02.149Z,98711.83
2023-04-01T04:13:31.759Z,98711.98
2023-04-01T04:16:03.976Z,98709.32
2023-04-01T04:18:32.710Z,98717.80
2023-04-01T04:21:05.907Z,98713.45
2023-04-01T04:23:34.902Z,98707.75
2023-04-01T04:26:11.486Z,98714.77
2023-04-01T04:28:39.964Z,98717.20
2023-04-01T04:31:09.128Z,98716.61
2023-04-01T04:33:39.910Z,98711.50
2023-04-01T04:36:08.778Z,98714.09
2023-04-01T04:38:41.262Z,98710.41
2023-04-01T04:41:16.644Z,98713.27
2023-04-01T04:43:52.574Z,98712.39
2023-04-01T04:46:21.991Z,98713.02
2023-04-01T04:48:51.680Z,98713.67
2023-04-01T04:51:20.164Z,98714.11
2023-04-01T04:53:50.191Z,98710.49
2023-04-01T04:56:27.260Z,98708.16
2023-04-01T04:59:07.621Z,98707.73
2023-04-01T05:01:50.902Z,98707.83
2023-04-01T05:04:20.145Z,98704.73
2023-04-01T05:06:48.933Z,98706.79
2023-04-01T05:09:20.402Z,98706.31
2023-04-01T05:11:52.048Z,98704.64
2023-04-01T05:14:20.932Z,98705.25
2023-04-01T05:17:03.651Z,98704.19
2023-04-01T05:19:32.029Z,98706.61
2023-04-01T05:22:01.019Z,98701.17
2023-04-01T05:24:31.342Z,98703.42
2023-04-01T05:27:01.393Z,98704.73
2023-04-01T05:29:31.072Z,98703.65
2023-04-01T05:32:06.931Z,98704.52
2023-04-01T05:34:36.033Z,98703.86
2023-04-01T05:37:04.100Z,98707.15
2023-04-01T05:39:33.404Z,98708.70
2023-04-01T05:42:01.468Z,98702.39
2023-04-01T05:44:32.818Z,98698.40
2023-04-01T05:47:05.502Z,98700.29
2023-04-01T05:49:35.363Z,98706.47
2023-04-01T05:52:03.792Z,98714.46
2023-04-01T05:54:32.996Z,98714.64
2023-04-01T05:57:01.203Z,98721.73
2023-04-01T05:59:32.409Z,98719.52
2023-04-01T06:02:01.710Z,98718.73
2023-04-01T06:04:34.386Z,98717.41
2023-04-01T06:07:02.463Z,98721.77
2023-04-01T06:09:33.400Z,98718.98
2023-04-01T06:12:24.107Z,98721.47
2023-04-01T06:15:02.751Z,98722.05
2023-04-01T06:18:09.443Z,98729.15
2023-04-01T06:20:46.281Z,98724.02
2023-04-01T06:23:56.792Z,98729.38
2023-04-01T06:26:49.401Z,98731.50
2023-04-01T06:29:50.557Z,98731.64
2023-04-01T06:32:52.887Z,98732.33
2023-04-01T06:35:37.133Z,98727.25
2023-04-01T06:38:11.965Z,98723.48
2023-04-01T06:41:02.910Z,98716.91
2023-04-01T06:43:51.361Z,98719.70
2023-04-01T06:46:54.046Z,98721.26
2023-04-01T06:50:37.562Z,98724.55
2023-04-01T06:53:40.072Z,98729.98
2023-04-01T06:56:28.532Z,98722.62
2023-04-01T06:59:22.714Z,98724.70
2023-04-01T07:01:56.408Z,98726.66
2023-04-01T07:04:29.136Z,98725.34
2023-04-01T07:07:28.388Z,98725.23
2023-04-01T07:10:02.190Z,98731.16
2023-04-01T07:12:47.363Z,98732.56
2023-04-01T07:15:37.709Z,98731.09
2023-04-01T07:18:19.050Z,98732.34
2023-04-01T07:20:47.316Z,98734.02
2023-04-01T07:23:23.985Z,98735.89
2023-04-01T07:26:25.454Z,98743.91
2023-04-01T07:29:13.596Z,98745.23
2023-04-01T07:32:05.826Z,98743.92
2023-04-01T07:34:41.576Z,98738.08
2023-04-01T07:37:13.131Z,98738.16
2023-04-01T07:39:48.040Z,98735.98
2023-04-01T07:42:43.593Z,98733.95
2023-04-01T07:45:17.697Z,98737.67
2023-04-01T07:47:47.385Z,98742.05
2023-04-01T07:50:33.007Z,98738.66
2023-04-01T07:53:01.576Z,98740.34
2023-04-01T07:55:39.171Z,98742.59
2023-04-01T07:58:14.050Z,98742.38
2023-04-01T08:00:50.477Z,98743.86
2023-04-01T08:03:41.375Z,98744.88
2023-04-01T08:06:12.218Z,98744.98
2023-04-01T08:09:16.233Z,98743.71
2023-04-01T08:12:27.000Z,98752.67
2023-04-01T08:15:35.233Z,98753.83
2023-04-01T08:18:37.382Z,98752.95
2023-04-01T08:21:10.373Z,98756.83
2023-04-01T08:23:48.578Z,98759.98
2023-04-01T08:26:42.460Z,98757.85
2023-04-01T08:29:15.750Z,98762.15
2023-04-01T08:32:15.370Z,98761.29
2023-04-01T08:34:46.505Z,98761.20
2023-04-01T08:37:25.766Z,98761.63
2023-04-01T08:39:58.519Z,98765.52
2023-04-01T08:42:36.833Z,98767.66
2023-04-01T08:45:20.162Z,98762.88
2023-04-01T08:48:14.756Z,98769.90
2023-04-01T08:51:09.250Z,98769.58
2023-04-01T08:53:49.107Z,98776.13
2023-04-01T08:56:21.885Z,98770.48
2023-04-01T08:59:24.784Z,98772.29
2023-04-01T09:02:21.407Z,98773.08
2023-04-01T09:05:27.375Z,98774.09
2023-04-01T09:08:05.277Z,98774.69
2023-04-01T09:10:48.400Z,98775.09
2023-04-01T09:14:17.302Z,98774.80
2023-04-01T09:17:31.786Z,98776.30
2023-04-01T09:20:08.034Z,98774.41
2023-04-01T09:22:52.949Z,98767.02
2023-04-01T09:25:26.288Z,98765.44
2023-04-01T09:28:04.701Z,98768.23
2023-04-01T09:30:34.827Z,98764.17
2023-04-01T09:33:07.248Z,98757.91
2023-04-01T09:35:49.456Z,98759.73
2023-04-01T09:38:22.756Z,98765.32
2023-04-01T09:40:58.231Z,98761.71
2023-04-01T09:44:12.567Z,98758.80
2023-04-01T09:46:53.883Z,98753.58
2023-04-01T09:49:22.263Z,98752.34
2023-04-01T09:51:56.992Z,98755.30
2023-04-01T09:54:47.693Z,98761.60
2023-04-01T09:57:39.421Z,98764.48
2023-04-01T10:00:53.057Z,98759.70
2023-04-01T10:03:36.899Z,98756.30
2023-04-01T10:06:43.394Z,98759.11
2023-04-01T10:09:33.357Z,98753.30
2023-04-01T10:12:29.404Z,98748.58
2023-04-01T10:15:12.404Z,98749.56
2023-04-01T10:18:12.121Z,98743.89
2023-04-01T10:21:21.153Z,98741.00
2023-04-01T10:24:13.492Z,98737.73
2023-04-01T10:27:04.709Z,98732.44
2023-04-01T10:30:31.992Z,98727.34
2023-04-01T10:33:16.747Z,98725.11
2023-04-01T10:35:58.247Z,98723.96
2023-04-01T10:39:00.718Z,98719.92
2023-04-01T10:41:51.789Z,98718.80
2023-04-01T10:46:17.652Z,98710.95
2023-04-01T10:49:18.888Z,98710.95
2023-04-01T10:51:48.543Z,98719.97
2023-04-01T10:54:34.179Z,98721.08
2023-04-01T10:57:31.838Z,98715.77
2023-04-01T11:00:45.389Z,98722.15
2023-04-01T11:03:45.998Z,98722.24
2023-04-01T11:07:12.464Z,98722.81
2023-04-01T11:10:02.863Z,98717.27
2023-04-01T11:13:12.147Z,98714.42
2023-04-01T11:16:36.443Z,98713.66
2023-04-01T11:22:53.092Z,98713.77
2023-04-01T11:25:55.467Z,98706.52
2023-04-01T11:29:14.329Z,98704.13
2023-04-01T11:31:55.763Z,98701.11
2023-04-01T11:34:38.630Z,98696.09
2023-04-01T11:37:37.729Z,98697.67
2023-04-01T11:41:00.579Z,98695.33
2023-04-01T11:44:00.297Z,98686.96
2023-04-01T11:47:28.326Z,98695.77
2023-04-01T11:50:13.871Z,98696.49
2023-04-01T11:53:11.733Z,98689.54
2023-04-01T11:55:52.603Z,98686.11
2023-04-01T11:58:28.292Z,98684.82
2023-04-01T12:01:30.422Z,98681.30
2023-04-01T12:04:04.483Z,98680.11
2023-04-01T12:06:45.424Z,98678.70
2023-04-01T12:09:27.403Z,98674.93
2023-04-01T12:12:04.798Z,98675.59
2023-04-01T12:14:48.744Z,98674.71
2023-04-01T12:17:35.783Z,98676.70
2023-04-01T12:20:13.281Z,98674.16
2023-04-01T12:22:55.967Z,98675.77
2023-04-01T12:25:31.843Z,98670.59
2023-04-01T12:28:08.303Z,98672.98
2023-04-01T12:31:05.049Z,98670.51
2023-04-01T12:33:51.656Z,98671.42
2023-04-01T12:36:38.685Z,98670.52
2023-04-01T12:39:27.894Z,98674.20
2023-04-01T12:42:17.674Z,98672.75
2023-04-01T12:44:51.641Z,98670.49
2023-04-01T12:47:40.848Z,98669.15
2023-04-01T12:50:35.962Z,98665.45
2023-04-01T12:53:42.633Z,98664.91
2023-04-01T12:56:45.681Z,98660.79
2023-04-01T12:59:54.505Z,98663.08
2023-04-01T13:02:41.797Z,98658.29
2023-04-01T13:05:21.110Z,98661.16
2023-04-01T13:08:06.027Z,98663.63
2023-04-01T13:11:03.739Z,98665.47
2023-04-01T13:13:36.163Z,98670.86
2023-04-01T13:16:10.016Z,98664.31
2023-04-01T13:18:47.052Z,98658.11
2023-04-01T13:21:32.228Z,98651.34
2023-04-01T13:24:18.832Z,98649.69
2023-04-01T13:27:08.823Z,98649.30
2023-04-01T13:30:18.821Z,98643.61
2023-04-01T13:32:53.401Z,98643.66
2023-04-01T13:35:58.101Z,98639.77
2023-04-01T13:38:54.017Z,98636.42
2023-04-01T13:41:40.660Z,98639.70
2023-04-01T13:44:40.327Z,98638.54
2023-04-01T13:47:46.546Z,98640.80
2023-04-01T13:50:17.790Z,98639.31
2023-04-01T13:52:46.071Z,98638.23
2023-04-01T13:55:50.486Z,98638.70
2023-04-01T13:58:44.680Z,98638.30
2023-04-01T14:01:32.147Z,98639.72
2023-04-01T14:04:34.889Z,98633.27
2023-04-01T14:07:09.463Z,98630.19
2023-04-01T14:09:43.478Z,98635.27
2023-04-01T14:12:27.827Z,98629.42
2023-04-01T14:14:56.615Z,98626.98
2023-04-01T14:17:45.763Z,98626.25
2023-04-01T14:20:16.928Z,98626.20
2023-04-01T14:23:07.594Z,98627.30
2023-04-01T14:25:48.302Z,98631.00
2023-04-01T14:28:26.712Z,98625.02
2023-04-01T14:31:34.636Z,98627.61
2023-04-01T14:34:27.882Z,98623.95
2023-04-01T14:37:09.265Z,98628.10
2023-04-01T14:40:15.735Z,98630.47
2023-04-01T14:43:30.094Z,98624.34
2023-04-01T14:46:32.549Z,98628.45
2023-04-01T14:49:22.365Z,98633.17
2023-04-01T14:51:51.246Z,98631.63
2023-04-01T14:54:25.861Z,98629.35
2023-04-01T14:57:31.530Z,98632.63
2023-04-01T15:00:02.910Z,98635.11
2023-04-01T15:03:03.440Z,98637.59
2023-04-01T15:05:52.680Z,98639.52
2023-04-01T15:08:32.388Z,98639.96
2023-04-01T15:11:24.903Z,98640.70
2023-04-01T15:14:10.042Z,98642.13
2023-04-01T15:17:01.052Z,98646.09
2023-04-01T15:19:48.168Z,98639.42
2023-04-01T15:22:31.836Z,98646.13
2023-04-01T15:25:22.715Z,98650.27
2023-04-01T15:27:55.194Z,98651.08
2023-04-01T15:30:39.749Z,98655.95
2023-04-01T15:33:19.497Z,98655.28
2023-04-01T15:35:58.952Z,98658.68
2023-04-01T15:38:59.773Z,98660.87
2023-04-01T15:41:37.061Z,98664.06
2023-04-01T15:44:39.538Z,98665.31
2023-04-01T15:47:26.540Z,98665.39
2023-04-01T15:50:19.633Z,98670.45
2023-04-01T15:53:01.823Z,98676.55
2023-04-01T15:55:49.654Z,98680.59
2023-04-01T15:58:36.571Z,98688.97
2023-04-01T16:01:11.538Z,98694.60
2023-04-01T16:04:12.845Z,98697.38
2023-04-01T16:06:53.749Z,98702.24
2023-04-01T16:09:52.821Z,98709.58
2023-04-01T16:12:37.789Z,98707.44
2023-04-01T16:15:28.898Z,98714.59
2023-04-01T16:18:27.876Z,98718.60
2023-04-01T16:21:02.432Z,98722.81
2023-04-01T16:23:50.677Z,98720.59
2023-04-01T16:26:44.168Z,98723.20
2023-04-01T16:29:36.883Z,98728.13
2023-04-01T16:32:17.356Z,98728.69
2023-04-01T16:34:55.585Z,98738.71
2023-04-01T16:37:34.071Z,98746.61
2023-04-01T16:40:24.035Z,98749.80
2023-04-01T16:42:55.103Z,98756.94
2023-04-01T16:45:32.109Z,98758.92
2023-04-01T16:48:14.524Z,98761.06
2023-04-01T16:50:49.614Z,98768.48
2023-04-01T16:53:21.176Z,98767.90
2023-04-01T16:55:55.392Z,98771.70
2023-04-01T16:58:27.693Z,98770.80
2023-04-01T17:01:26.436Z,98770.18
2023-04-01T17:03:59.776Z,98767.04
2023-04-01T17:06:49.760Z,98770.50
2023-04-01T17:09:40.044Z,98777.76
2023-04-01T17:12:23.915Z,98779.39
2023-04-01T17:15:08.742Z,98785.23
2023-04-01T17:17:52.757Z,98783.00
2023-04-01T17:20:28.031Z,98787.51
2023-04-01T17:23:17.914Z,98793.48
2023-04-01T17:26:05.737Z,98794.65
2023-04-01T17:28:43.763Z,98796.27
2023-04-01T17:31:31.819Z,98792.14
2023-04-01T17:34:01.510Z,98791.22
2023-04-01T17:36:51.082Z,98791.48
2023-04-01T17:39:37.789Z,98794.27
2023-04-01T17:42:21.325Z,98793.27
2023-04-01T17:45:00.421Z,98788.50
2023-04-01T17:47:49.656Z,98793.05
2023-04-01T17:50:35.585Z,98790.80
2023-04-01T17:53:22.921Z,98792.04
2023-04-01T17:56:06.471Z,98786.60
2023-04-01T17:58:41.305Z,98793.64
2023-04-01T18:01:13.792Z,98793.34
2023-04-01T18:03:52.280Z,98794.21
2023-04-01T18:06:55.940Z,98794.54
2023-04-01T18:09:59.115Z,98796.13
2023-04-01T18:13:08.174Z,98794.89
2023-04-01T18:16:01.031Z,98790.96
2023-04-01T18:18:43.388Z,98792.52
2023-04-01T18:21:34.914Z,98793.95
2023-04-01T18:24:26.336Z,98795.75
2023-04-01T18:27:06.013Z,98796.33
2023-04-01T18:29:53.611Z,98795.50
2023-04-01T18:32:38.431Z,98797.59
2023-04-01T18:35:35.927Z,98799.02
2023-04-01T18:38:04.720Z,98799.37
2023-04-01T18:40:37.577Z,98799.59
2023-04-01T18:43:17.860Z,98802.90
2023-04-01T18:46:04.288Z,98804.55
2023-04-01T18:49:06.836Z,98807.05
2023-04-01T18:51:52.653Z,98806.58
2023-04-01T18:54:31.727Z,98804.53
2023-04-01T18:57:13.794Z,98798.86
2023-04-01T18:59:44.611Z,98796.69
2023-04-01T19:02:36.483Z,98795.59
2023-04-01T19:05:20.700Z,98794.70
2023-04-01T19:07:52.141Z,98792.70
2023-04-01T19:11:01.386Z,98797.04
2023-04-01T19:13:38.766Z,98798.68
2023-04-01T19:16:26.383Z,98800.03
2023-04-01T19:19:31.629Z,98799.23
2023-04-01T19:22:13.631Z,98804.22
2023-04-01T19:24:47.027Z,98803.14
2023-04-01T19:27:40.804Z,98802.84
2023-04-01T19:30:20.689Z,98803.75
2023-04-01T19:33:22.212Z,98804.77
2023-04-01T19:36:28.938Z,98803.33
2023-04-01T19:39:12.469Z,98802.27
2023-04-01T19:41:54.107Z,98798.77
2023-04-01T19:44:56.528Z,98799.98
2023-04-01T19:47:37.459Z,98795.79
2023-04-01T19:50:36.642Z,98796.33
2023-04-01T19:53:24.710Z,98795.30
2023-04-01T19:56:23.610Z,98796.25
2023-04-01T19:58:55.264Z,98801.77
2023-04-01T20:01:34.727Z,98799.07
2023-04-01T20:04:31.643Z,98795.45
2023-04-01T20:07:09.852Z,98795.60
2023-04-01T20:09:53.182Z,98796.92
2023-04-01T20:12:32.108Z,98804.70
2023-04-01T20:15:07.026Z,98797.84
2023-04-01T20:17:37.966Z,98801.13
2023-04-01T20:20:12.220Z,98797.62
2023-04-01T20:22:47.331Z,98798.38
2023-04-01T20:25:38.137Z,98800.23
2023-04-01T20:28:10.736Z,98802.41
2023-04-01T20:31:04.698Z,98806.70
2023-04-01T20:33:55.927Z,98809.23
2023-04-01T20:36:49.285Z,98804.01
2023-04-01T20:39:35.883Z,98805.02
2023-04-01T20:42:30.853Z,98809.23
2023-04-01T20:45:10.220Z,98813.27
2023-04-01T20:47:59.717Z,98808.96
2023-04-01T20:51:07.605Z,98818.63
2023-04-01T20:53:44.381Z,98814.64
2023-04-01T20:56:24.569Z,98816.71
2023-04-01T20:59:20.621Z,98814.91
2023-04-01T21:01:56.032Z,98816.66
2023-04-01T21:04:46.474Z,98812.89
2023-04-01T21:07:56.790Z,98817.26
2023-04-01T21:10:46.779Z,98820.11
2023-04-01T21:13:26.603Z,98812.07
2023-04-01T21:16:16.304Z,98813.39
2023-04-01T21:18:59.552Z,98817.52
2023-04-01T21:21:48.243Z,98809.71
2023-04-01T21:24:44.851Z,98814.27
2023-04-01T21:27:43.980Z,98815.66
2023-04-01T21:30:41.585Z,98816.02
2023-04-01T21:33:35.480Z,98813.42
2023-04-01T21:36:09.986Z,98813.41
2023-04-01T21:38:44.696Z,98814.05
2023-04-01T21:41:40.428Z,98812.60
2023-04-01T21:44:29.378Z,98814.73
2023-04-01T21:47:22.726Z,98818.17
2023-04-01T21:50:11.894Z,98820.83
2023-04-01T21:52:52.201Z,98825.09
2023-04-01T21:55:43.895Z,98825.63
2023-04-01T21:58:24.108Z,98822.91
2023-04-01T22:01:28.339Z,98818.23
2023-04-01T22:04:12.096Z,98819.66
2023-04-01T22:06:58.009Z,98824.06
2023-04-01T22:09:36.120Z,98823.36
2023-04-01T22:12:30.704Z,98825.41
2023-04-01T22:15:30.648Z,98824.98
2023-04-01T22:18:17.069Z,98832.99
2023-04-01T22:20:49.525Z,98829.23
2023-04-01T22:23:36.615Z,98826.86
2023-04-01T22:26:13.387Z,98830.35
2023-04-01T22:29:06.963Z,98828.39
2023-04-01T22:31:49.124Z,98828.86
2023-04-01T22:34:17.439Z,98827.96
2023-04-01T22:36:48.991Z,98825.63
2023-04-01T22:39:58.536Z,98825.42
2023-04-01T22:42:35.516Z,98822.20
2023-04-01T22:45:07.380Z,98821.91
2023-04-01T22:47:42.236Z,98823.52
2023-04-01T22:50:17.396Z,98820.98
2023-04-01T22:52:52.541Z,98820.03
2023-04-01T22:55:23.583Z,98821.77
2023-04-01T22:57:55.384Z,98821.86
2023-04-01T23:00:27.769Z,98821.73
2023-04-01T23:04:41.383Z,98832.52
2023-04-01T23:07:54.961Z,98829.77
2023-04-01T23:10:42.755Z,98828.44
2023-04-01T23:13:21.983Z,98827.65
2023-04-01T23:15:50.219Z,98825.27
2023-04-01T23:18:29.116Z,98825.27
2023-04-01T23:21:16.090Z,98823.14
2023-04-01T23:23:59.260Z,98824.73
2023-04-01T23:26:35.430Z,98827.48
2023-04-01T23:29:03.621Z,98822.45
2023-04-01T23:31:40.160Z,98820.98
2023-04-01T23:34:14.935Z,98822.27
2023-04-01T23:36:47.367Z,98822.86
2023-04-01T23:39:21.379Z,98822.71
2023-04-01T23:41:49.972Z,98828.39
2023-04-01T23:44:18.035Z,98828.05
2023-04-01T23:46:54.913Z,98831.59
2023-04-01T23:49:50.380Z,98835.70
2023-04-01T23:52:29.355Z,98834.67
2023-04-01T23:55:20.624Z,98831.23
2023-04-01T23:58:16.516Z,98834.35
